Time;durP1;ratioP1;P1;durP2;ratioP2;P2;SDS_P1;SDS_P2;PMS_P1;PMS_P2;Temp;Humidity;BMP_temperature;BMP_pressure;BME280_temperature;BME280_humidity;BME280_pressure;Samples;Min_cycle;Max_cycle;Signal;HPM_P1;HPM_P2
2023/02/24 00:01:36;;;;;;;21.40;4.15;;;;;;;6.59;72.46;99626.28;5032144;28;20045;-80
2023/02/24 00:04:07;;;;;;;17.15;3.00;;;;;;;6.60;72.58;99622.75;5032787;28;20049;-80
2023/02/24 00:06:37;;;;;;;14.02;2.72;;;;;;;6.60;72.24;99618.38;5031977;28;20045;-80
2023/02/24 00:09:14;;;;;;;19.13;3.75;;;;;;;6.61;71.99;99616.59;5032715;28;20056;-80
2023/02/24 00:11:43;;;;;;;17.17;3.67;;;;;;;6.63;72.49;99622.63;5032785;28;20096;-80
2023/02/24 00:14:14;;;;;;;9.98;2.47;;;;;;;6.62;71.95;99613.94;5032557;28;20075;-80
2023/02/24 00:16:43;;;;;;;16.90;3.53;;;;;;;6.63;72.12;99612.16;5032256;28;20473;-80
2023/02/24 00:19:16;;;;;;;9.13;2.50;;;;;;;6.62;71.91;99610.47;5032290;28;20494;-80
2023/02/24 00:21:43;;;;;;;;;;;;;;;6.63;71.47;99610.41;5033007;28;20119;-80
2023/02/24 00:24:10;;;;;;;16.30;3.35;;;;;;;6.65;71.77;99611.19;5032460;28;19921;-80
2023/02/24 00:26:37;;;;;;;16.33;3.38;;;;;;;6.64;71.97;99604.25;5031627;28;20061;-81
2023/02/24 00:29:06;;;;;;;23.48;3.88;;;;;;;6.62;71.81;99602.63;5014656;28;20053;-80
2023/02/24 00:31:32;;;;;;;14.35;3.22;;;;;;;6.60;72.27;99597.47;5032165;28;20426;-79
2023/02/24 00:34:00;;;;;;;12.50;3.35;;;;;;;6.59;72.09;99601.00;5032092;28;20120;-79
2023/02/24 00:36:29;;;;;;;16.85;3.08;;;;;;;6.58;72.10;99604.50;5031899;28;20056;-80
2023/02/24 00:38:59;;;;;;;21.10;2.90;;;;;;;6.57;71.97;99600.19;5031827;28;20084;-80
2023/02/24 00:41:29;;;;;;;13.50;2.40;;;;;;;6.56;72.04;99597.66;5031998;28;20049;-80
2023/02/24 00:44:04;;;;;;;15.23;2.55;;;;;;;6.56;71.82;99598.50;5031788;28;20049;-79
2023/02/24 00:46:45;;;;;;;18.65;3.78;;;;;;;6.54;71.17;99602.09;5031867;28;20084;-78
2023/02/24 00:49:18;;;;;;;16.02;2.70;;;;;;;6.51;70.93;99598.69;5014274;28;20057;-80
2023/02/24 00:51:47;;;;;;;13.23;3.33;;;;;;;6.53;71.56;99595.19;5032108;28;20049;-80
2023/02/24 00:54:15;;;;;;;9.88;2.33;;;;;;;6.50;71.22;99585.69;5031751;28;20095;-81
2023/02/24 00:56:44;;;;;;;11.88;2.50;;;;;;;6.48;71.58;99585.78;5013346;28;20141;-80
2023/02/24 00:59:13;;;;;;;19.00;2.92;;;;;;;6.46;71.32;99589.34;5031978;28;20056;-80
2023/02/24 01:01:40;;;;;;;12.80;2.72;;;;;;;6.42;71.21;99580.78;5031861;28;20103;-80
2023/02/24 01:04:10;;;;;;;16.33;3.13;;;;;;;6.42;71.09;99577.34;5013980;28;20054;-80
2023/02/24 01:06:43;;;;;;;13.05;2.75;;;;;;;6.38;70.89;99577.47;5030909;28;20084;-80
2023/02/24 01:09:12;;;;;;;13.27;2.45;;;;;;;6.37;71.04;99575.78;5013835;28;20107;-79
2023/02/24 01:14:28;;;;;;;16.52;2.38;;;;;;;6.32;70.17;99558.56;5031671;28;20045;-80
2023/02/24 01:16:55;;;;;;;11.18;3.00;;;;;;;6.27;70.00;99548.31;5030652;28;20053;-80
2023/02/24 01:19:30;;;;;;;7.60;2.40;;;;;;;6.21;69.84;99552.03;5031316;28;20061;-80
2023/02/24 01:21:57;;;;;;;12.90;2.38;;;;;;;6.16;69.77;99551.38;5014151;28;20134;-80
2023/02/24 01:24:24;;;;;;;14.38;2.42;;;;;;;6.10;69.96;99552.47;5031255;28;20700;-80
2023/02/24 01:26:51;;;;;;;14.13;2.33;;;;;;;6.06;70.04;99539.63;5013168;28;20055;-80
2023/02/24 01:29:18;;;;;;;9.13;2.25;;;;;;;6.00;69.65;99540.69;5013601;28;20422;-80
2023/02/24 01:31:45;;;;;;;9.15;2.17;;;;;;;5.94;69.60;99533.94;5031231;28;20059;-80
2023/02/24 01:34:16;;;;;;;10.18;2.20;;;;;;;5.90;69.84;99534.16;5031317;28;20099;-80
2023/02/24 01:36:44;;;;;;;6.72;2.20;;;;;;;5.84;69.57;99530.84;5030412;28;20114;-80
2023/02/24 01:39:12;;;;;;;11.18;2.00;;;;;;;5.79;69.36;99522.38;5031126;28;20045;-80
2023/02/24 01:41:42;;;;;;;14.02;2.35;;;;;;;5.73;69.31;99517.41;5031005;28;20049;-80
2023/02/24 01:44:21;;;;;;;10.95;2.30;;;;;;;5.68;69.38;99514.13;5030891;28;20449;-80
2023/02/24 01:46:50;;;;;;;15.07;2.30;;;;;;;5.65;69.41;99512.50;5030393;28;20049;-80
2023/02/24 01:49:22;;;;;;;12.77;2.70;;;;;;;5.58;69.29;99509.25;5013417;28;20095;-79
2023/02/24 01:52:00;;;;;;;14.87;3.23;;;;;;;5.56;69.78;99505.88;5031249;28;20456;-79
2023/02/24 01:54:34;;;;;;;14.43;3.15;;;;;;;5.51;69.45;99502.59;5030761;28;20096;-80
2023/02/24 01:57:04;;;;;;;10.50;2.67;;;;;;;5.49;69.86;99499.19;5030038;28;20581;-80
2023/02/24 01:59:34;;;;;;;10.20;2.72;;;;;;;5.44;70.02;99494.16;5030919;28;20052;-80
2023/02/24 02:02:05;;;;;;;20.80;3.53;;;;;;;5.41;69.87;99491.69;5030921;28;20049;-81
2023/02/24 02:04:41;;;;;;;16.35;3.10;;;;;;;5.38;69.63;99483.13;5030804;28;20476;-81
2023/02/24 02:07:11;;;;;;;14.10;2.92;;;;;;;5.37;70.07;99479.66;5030163;28;20045;-80
2023/02/24 02:09:40;;;;;;;11.65;2.65;;;;;;;5.34;70.12;99478.03;5012798;28;20533;-80
2023/02/24 02:12:09;;;;;;;10.55;2.17;;;;;;;5.31;70.16;99478.13;5030856;28;20050;-79
2023/02/24 02:14:43;;;;;;;14.30;2.65;;;;;;;5.29;69.89;99471.28;5030604;28;20052;-80
2023/02/24 02:17:18;;;;;;;16.80;2.45;;;;;;;5.27;70.07;99473.94;5029906;28;20075;-80
2023/02/24 02:20:05;;;;;;;9.63;2.15;;;;;;;5.22;69.59;99465.44;5030374;28;20486;-80
2023/02/24 02:23:06;;;;;;;9.23;2.35;;;;;;;5.19;69.36;99456.00;5030691;28;20061;-80
2023/02/24 02:26:10;;;;;;;9.00;1.83;;;;;;;5.17;69.47;99451.75;5034320;28;20053;-80
2023/02/24 02:29:01;;;;;;;8.50;2.38;;;;;;;5.16;69.48;99450.06;4946651;28;20055;-80
2023/02/24 02:32:24;;;;;;;10.30;2.20;;;;;;;5.11;69.19;99446.75;5034365;28;20567;-80
2023/02/24 02:35:02;;;;;;;8.35;2.58;;;;;;;5.09;69.27;99436.41;5003572;28;20084;-79
2023/02/24 02:37:40;;;;;;;12.80;2.75;;;;;;;5.03;69.18;99432.28;5033965;28;20556;-80
2023/02/24 02:40:18;;;;;;;8.70;2.30;;;;;;;5.00;69.45;99439.34;5034427;28;20084;-79
2023/02/24 02:43:25;;;;;;;9.02;2.50;;;;;;;4.92;69.05;99431.81;5034348;28;20140;-80
2023/02/24 02:46:16;;;;;;;9.30;2.60;;;;;;;4.89;68.79;99426.72;5033853;28;20490;-80
2023/02/24 02:48:50;;;;;;;10.05;2.25;;;;;;;4.86;69.00;99430.31;5033916;28;20045;-80
2023/02/24 02:51:25;;;;;;;11.93;2.50;;;;;;;4.82;69.35;99426.09;5034080;28;20053;-80
2023/02/24 02:54:04;;;;;;;9.07;1.77;;;;;;;4.74;68.98;99418.59;5034383;28;20135;-79
2023/02/24 02:56:41;;;;;;;8.93;2.67;;;;;;;4.71;69.14;99423.09;5033687;28;20557;-80
2023/02/24 02:59:11;;;;;;;12.23;2.65;;;;;;;4.68;69.70;99416.22;5034082;28;20111;-80
2023/02/24 03:01:42;;;;;;;8.27;2.33;;;;;;;4.65;69.90;99408.53;5033870;28;20407;-80
2023/02/24 03:04:15;;;;;;;11.25;2.25;;;;;;;4.62;69.98;99404.28;5034217;28;20045;-80
2023/02/24 03:06:54;;;;;;;11.82;2.22;;;;;;;4.57;69.60;99403.59;5015235;28;20513;-79
2023/02/24 03:09:28;;;;;;;7.25;2.10;;;;;;;4.59;69.80;99393.13;5016244;28;20494;-80
2023/02/24 03:11:58;;;;;;;10.52;2.25;;;;;;;4.58;69.98;99397.47;5033715;28;20046;-79
2023/02/24 03:14:29;;;;;;;19.83;2.58;;;;;;;4.56;69.89;99394.94;5033569;28;20495;-79
2023/02/24 03:16:58;;;;;;;10.45;2.08;;;;;;;4.55;69.40;99389.75;5032993;28;20049;-80
2023/02/24 03:19:36;;;;;;;10.55;2.97;;;;;;;4.52;69.00;99393.34;5033785;28;20088;-80
2023/02/24 03:22:14;;;;;;;10.52;2.55;;;;;;;4.47;68.63;99387.47;5033586;28;20045;-80
2023/02/24 03:24:43;;;;;;;6.75;1.75;;;;;;;4.46;69.44;99388.38;5033439;28;20046;-79
2023/02/24 03:27:23;;;;;;;9.20;2.40;;;;;;;4.38;68.75;99380.00;5032777;28;20076;-80
2023/02/24 03:29:57;;;;;;;12.27;2.42;;;;;;;4.35;69.39;99383.56;5015897;28;20050;-80
2023/02/24 03:32:31;;;;;;;9.23;2.30;;;;;;;4.29;69.37;99374.22;5033432;28;20076;-79
2023/02/24 03:35:07;;;;;;;11.38;2.40;;;;;;;4.26;69.55;99382.13;5032173;28;20050;-79
2023/02/24 03:37:35;;;;;;;9.52;2.22;;;;;;;4.22;69.55;99380.53;5033137;28;20064;-79
2023/02/24 03:40:16;;;;;;;9.95;2.42;;;;;;;4.17;69.88;99369.44;5033342;28;20135;-79
2023/02/24 03:42:47;;;;;;;10.40;2.28;;;;;;;4.15;69.85;99369.50;5033354;28;20535;-79
2023/02/24 03:45:15;;;;;;;10.75;2.40;;;;;;;4.14;69.91;99365.22;5032971;28;20056;-80
2023/02/24 03:47:44;;;;;;;9.05;1.95;;;;;;;4.15;70.52;99360.84;5032972;28;20453;-80
2023/02/24 03:50:17;;;;;;;11.45;2.20;;;;;;;4.13;70.11;99360.06;5015765;28;20057;-79
2023/02/24 03:53:05;;;;;;;9.15;2.53;;;;;;;4.14;69.95;99353.94;5015752;28;20053;-79
2023/02/24 03:56:09;;;;;;;10.75;2.42;;;;;;;4.14;69.70;99351.31;5032859;28;20150;-79
2023/02/24 03:59:14;;;;;;;12.70;1.90;;;;;;;4.16;69.58;99357.34;5032795;28;20049;-80
2023/02/24 04:01:54;;;;;;;7.97;1.90;;;;;;;4.21;70.49;99358.00;5032991;28;20056;-79
2023/02/24 04:04:46;;;;;;;11.75;2.55;;;;;;;4.21;69.80;99351.94;5033235;28;20074;-79
2023/02/24 04:07:25;;;;;;;9.73;2.15;;;;;;;4.24;70.56;99352.69;5032465;28;20060;-79
2023/02/24 04:10:15;;;;;;;7.13;2.17;;;;;;;4.24;69.83;99351.84;5032942;28;20064;-80
2023/02/24 04:12:49;;;;;;;9.57;2.25;;;;;;;4.29;70.23;99344.69;5032960;28;20473;-79
2023/02/24 04:15:36;;;;;;;8.60;2.40;;;;;;;4.28;69.93;99343.84;5032444;28;20063;-79
2023/02/24 04:18:14;;;;;;;10.43;2.42;;;;;;;4.32;70.23;99344.59;5032222;28;20490;-80
2023/02/24 04:20:42;;;;;;;8.13;2.05;;;;;;;4.39;71.07;99337.38;5032522;28;20055;-79
2023/02/24 04:23:16;;;;;;;10.05;2.10;;;;;;;4.40;70.26;99339.06;5032471;28;20560;-80
2023/02/24 04:25:46;;;;;;;7.20;1.70;;;;;;;4.46;70.76;99335.38;5032251;28;20049;-79
2023/02/24 04:28:14;;;;;;;10.38;2.00;;;;;;;4.51;71.00;99325.63;5031993;28;20053;-79
2023/02/24 04:30:47;;;;;;;8.82;1.88;;;;;;;4.53;70.90;99329.88;5032360;28;20461;-79
2023/02/24 04:33:13;;;;;;;;;;;;;;;4.58;69.69;99321.88;5032716;28;20050;-80
2023/02/24 04:35:44;;;;;;;6.45;1.83;;;;;;;4.64;70.45;99324.22;5031971;28;19927;-79
2023/02/24 04:38:10;;;;;;;9.43;1.95;;;;;;;4.67;70.81;99312.84;5032031;28;20062;-79
2023/02/24 04:40:39;;;;;;;9.90;2.20;;;;;;;4.69;71.00;99311.88;5032268;28;20057;-79
2023/02/24 04:43:06;;;;;;;13.23;2.58;;;;;;;4.72;70.70;99303.09;5032099;28;20046;-80
2023/02/24 04:45:33;;;;;;;8.15;2.17;;;;;;;4.74;70.61;99293.44;5031712;28;20089;-79
2023/02/24 04:48:04;;;;;;;10.18;2.10;;;;;;;4.75;70.29;99291.69;5031540;28;20104;-79
2023/02/24 04:50:33;;;;;;;13.73;2.45;;;;;;;4.76;70.21;99286.41;5032023;28;20475;-79
2023/02/24 04:53:05;;;;;;;6.65;1.98;;;;;;;4.78;69.89;99291.53;5031985;28;20068;-80
2023/02/24 04:55:41;;;;;;;5.37;2.03;;;;;;;4.77;69.82;99277.69;5031621;28;20052;-79
2023/02/24 04:58:13;;;;;;;11.27;1.98;;;;;;;4.76;68.97;99276.00;5031396;28;20049;-80
2023/02/24 05:00:40;;;;;;;12.50;2.73;;;;;;;4.78;69.97;99271.53;5032046;28;20061;-80
2023/02/24 05:03:10;;;;;;;7.75;2.35;;;;;;;4.76;69.67;99265.56;5031842;28;20049;-80
2023/02/24 05:05:37;;;;;;;9.68;2.33;;;;;;;4.75;69.92;99263.00;5031365;28;20099;-80
2023/02/24 05:08:09;;;;;;;8.50;2.40;;;;;;;4.71;68.71;99246.63;5031280;28;20056;-79
2023/02/24 05:10:39;;;;;;;8.00;2.25;;;;;;;4.71;69.51;99251.00;5031516;28;20152;-79
2023/02/24 05:13:07;;;;;;;10.15;2.33;;;;;;;4.68;69.70;99238.94;5031318;28;20421;-80
2023/02/24 05:18:41;;;;;;;10.23;2.42;;;;;;;4.66;69.37;99235.53;5008829;28;20125;-78
2023/02/24 05:24:40;;;;;;;7.47;2.58;;;;;;;4.57;67.94;99221.97;5004367;28;20120;-79
2023/02/24 05:28:01;;;;;;;13.55;2.92;;;;;;;4.59;68.42;99210.66;4915055;29;20089;-78
2023/02/24 05:30:59;;;;;;;;;;;;;;;;;;;;;
2023/02/24 05:36:54;;;;;;;9.27;2.35;;;;;;;4.51;69.19;99201.38;4966866;28;20050;-78
2023/02/24 05:39:25;;;;;;;15.02;2.75;;;;;;;4.47;68.58;99194.59;5012353;28;20136;-79
2023/02/24 05:41:53;;;;;;;11.07;2.65;;;;;;;4.48;69.51;99183.25;5010919;28;20050;-78
2023/02/24 05:44:40;;;;;;;11.55;2.33;;;;;;;4.45;69.63;99182.53;5012043;28;20062;-78
2023/02/24 05:47:53;;;;;;;10.30;1.95;;;;;;;4.43;68.52;99185.19;5012121;28;20053;-79
2023/02/24 05:51:01;;;;;;;10.55;2.63;;;;;;;4.39;68.27;99173.22;5012133;28;20112;-78
2023/02/24 05:54:03;;;;;;;10.57;2.20;;;;;;;4.36;67.43;99171.56;4938039;29;20058;-79
2023/02/24 05:56:49;;;;;;;6.93;2.05;;;;;;;4.39;69.26;99165.38;4946270;29;20141;-78
2023/02/24 05:59:20;;;;;;;11.02;2.20;;;;;;;4.36;69.08;99166.38;4933808;29;20086;-77
2023/02/24 06:01:48;;;;;;;13.02;2.47;;;;;;;4.33;69.07;99150.84;4950346;28;20591;-78
2023/02/24 06:04:38;;;;;;;6.88;2.10;;;;;;;4.33;69.55;99150.84;5010882;28;20824;-78
2023/02/24 06:07:12;;;;;;;7.50;1.90;;;;;;;4.34;69.38;99149.09;5010481;28;20042;-78
2023/02/24 06:09:43;;;;;;;15.85;2.58;;;;;;;4.34;69.18;99146.50;5010997;28;20060;-78
2023/02/24 06:12:13;;;;;;;8.05;2.00;;;;;;;4.35;69.14;99140.38;5010926;28;20045;-77
2023/02/24 06:14:41;;;;;;;12.15;2.40;;;;;;;4.35;69.14;99140.38;5011069;28;20506;-78
2023/02/24 06:17:33;;;;;;;9.35;1.88;;;;;;;4.35;68.66;99135.16;5011692;28;20049;-78
2023/02/24 06:20:38;;;;;;;7.82;1.92;;;;;;;4.32;66.62;99136.13;4996657;28;20391;-78
2023/02/24 06:23:38;;;;;;;6.65;2.10;;;;;;;4.37;68.91;99128.97;5001356;28;20129;-78
2023/02/24 06:27:01;;;;;;;8.45;2.40;;;;;;;4.40;69.12;99120.16;5010696;28;20058;-78
2023/02/24 06:30:21;;;;;;;12.52;2.13;;;;;;;4.38;67.72;99114.19;5003960;28;20056;-79
2023/02/24 06:33:06;;;;;;;6.07;1.67;;;;;;;4.41;69.41;99116.69;5012472;28;20096;-78
2023/02/24 06:35:32;;;;;;;13.77;2.55;;;;;;;4.41;69.27;99114.06;5010446;28;20077;-78
2023/02/24 06:37:59;;;;;;;8.93;2.22;;;;;;;4.42;69.17;99111.38;5008188;28;20128;-78
2023/02/24 06:40:31;;;;;;;11.05;1.90;;;;;;;4.43;68.72;99109.63;5011057;28;20054;-78
2023/02/24 06:43:14;;;;;;;7.53;2.08;;;;;;;4.43;68.90;99105.28;4991552;28;20117;-78
2023/02/24 06:46:06;;;;;;;9.57;2.28;;;;;;;4.41;67.53;99104.47;5009767;28;20894;-78
2023/02/24 06:49:15;;;;;;;;;;;;;;;;;;;;;
2023/02/24 06:52:05;;;;;;;7.28;1.77;;;;;;;4.47;68.08;99097.31;4895447;29;20051;-77
2023/02/24 06:58:37;;;;;;;6.97;2.28;;;;;;;4.47;67.11;99103.38;5011319;28;20129;-78
2023/02/24 07:01:28;;;;;;;10.23;2.47;;;;;;;4.49;67.40;99085.06;4969373;28;20550;-79
2023/02/24 07:07:09;;;;;;;6.65;2.13;;;;;;;4.51;68.45;99085.84;4951532;28;20043;-78
2023/02/24 07:09:36;;;;;;;11.95;2.70;;;;;;;4.51;68.13;99089.31;4971897;28;20129;-78
2023/02/24 07:12:03;;;;;;;14.18;2.42;;;;;;;4.52;68.44;99077.97;5013261;28;20042;-77
2023/02/24 07:14:30;;;;;;;13.75;3.05;;;;;;;4.53;68.63;99074.44;5013553;28;20078;-78
2023/02/24 07:17:17;;;;;;;9.52;2.60;;;;;;;4.53;67.05;99073.59;5014843;28;20053;-78
2023/02/24 07:19:44;;;;;;;11.70;2.78;;;;;;;4.57;68.56;99067.34;5013316;28;20058;-78
2023/02/24 07:22:56;;;;;;;13.30;2.47;;;;;;;4.56;67.14;99057.81;5014185;28;20073;-78
2023/02/24 07:25:57;;;;;;;15.38;3.20;;;;;;;4.60;67.36;99061.97;4970918;28;20072;-78
2023/02/24 07:32:29;;;;;;;8.70;2.25;;;;;;;4.67;67.14;99039.09;5015298;28;20401;-78
2023/02/24 07:35:13;;;;;;;8.07;2.10;;;;;;;4.68;68.36;99036.41;5015539;28;20131;-78
2023/02/24 07:38:00;;;;;;;13.90;2.67;;;;;;;4.68;68.56;99039.03;4940265;29;20065;-79
2023/02/24 07:41:45;;;;;;;9.57;2.45;;;;;;;4.68;66.85;99039.03;4898734;28;20138;-79
2023/02/24 07:44:53;;;;;;;;;;;;;;;;;;;;;
2023/02/24 07:47:40;;;;;;;16.38;3.33;;;;;;;4.72;67.87;99028.47;4954193;28;20142;-78
2023/02/24 07:50:55;;;;;;;5.68;2.00;;;;;;;4.68;67.87;99028.59;4920544;28;20620;-79
2023/02/24 07:54:07;;;;;;;9.40;1.88;;;;;;;4.63;66.47;99019.31;4998019;28;20085;-79
2023/02/24 07:57:32;;;;;;;;;;;;;;;;;;;;;
2023/02/24 08:00:27;;;;;;;13.10;2.65;;;;;;;4.57;67.63;99012.63;5007455;28;20046;-79
2023/02/24 08:03:23;;;;;;;;;;;;;;;;;;;;;
2023/02/24 08:09:16;;;;;;;11.07;2.35;;;;;;;4.47;68.14;98987.84;4973157;28;20590;-78
2023/02/24 08:12:28;;;;;;;11.48;2.33;;;;;;;4.40;68.20;98977.72;4896269;29;20398;-79
2023/02/24 08:15:44;;;;;;;16.10;2.60;;;;;;;4.41;69.26;98978.56;4896437;29;20072;-78
2023/02/24 08:18:18;;;;;;;12.00;2.13;;;;;;;4.38;69.36;98965.66;4858241;29;20578;-79
2023/02/24 08:21:18;;;;;;;10.48;2.53;;;;;;;4.33;69.20;98970.25;4921704;28;20051;-78
2023/02/24 08:27:41;;;;;;;8.63;2.05;;;;;;;4.25;69.75;98963.59;4997076;28;20578;-78
2023/02/24 08:30:51;;;;;;;8.55;2.38;;;;;;;4.28;70.26;98955.66;5007415;28;20499;-79
2023/02/24 08:33:45;;;;;;;12.10;2.05;;;;;;;4.25;70.43;98950.56;5000864;28;20046;-79
2023/02/24 08:36:38;;;;;;;9.25;2.33;;;;;;;4.27;71.16;98950.50;5012024;28;20151;-77
2023/02/24 08:43:34;;;;;;;9.93;2.25;;;;;;;4.24;71.20;98935.84;4842464;29;20180;-79
2023/02/24 08:49:48;;;;;;;11.27;2.88;;;;;;;4.22;71.89;98924.66;4933862;29;20056;-79
2023/02/24 08:53:39;;;;;;;10.27;2.30;;;;;;;4.16;71.74;98919.72;4869657;29;20076;-79
2023/02/24 08:57:06;;;;;;;11.98;2.42;;;;;;;4.14;72.48;98911.13;4944544;28;20476;-79
2023/02/24 08:59:56;;;;;;;9.98;3.08;;;;;;;4.13;72.20;98910.28;4935311;29;20102;-79
2023/02/24 09:02:41;;;;;;;13.25;2.80;;;;;;;4.09;72.64;98913.94;4953675;28;20508;-78
2023/02/24 09:05:24;;;;;;;9.73;2.50;;;;;;;4.06;72.94;98901.03;4895422;29;20156;-79
2023/02/24 09:08:04;;;;;;;10.45;2.65;;;;;;;4.04;73.30;98892.47;4877140;29;20116;-79
2023/02/24 09:10:45;;;;;;;;;;;;;;;4.00;73.42;98902.16;4876892;29;20546;-78
2023/02/24 09:14:15;;;;;;;;;;;;;;;;;;;;;
2023/02/24 09:17:38;;;;;;;16.15;3.85;;;;;;;3.99;73.91;98881.38;4988109;28;20506;-78
2023/02/24 09:23:54;;;;;;;;;;;;;;;;;;;;;
2023/02/24 09:26:48;;;;;;;10.82;2.70;;;;;;;3.95;74.34;98859.84;4971144;28;20058;-78
2023/02/24 09:29:44;;;;;;;;;;;;;;;;;;;;;
2023/02/24 09:32:13;;;;;;;8.18;2.60;;;;;;;3.93;74.19;98859.09;4967456;28;20042;-79
2023/02/24 09:35:30;;;;;;;8.98;3.40;;;;;;;3.88;74.72;98848.00;4931936;29;20056;-79
2023/02/24 09:38:05;;;;;;;12.32;3.30;;;;;;;3.90;74.47;98846.19;4906157;29;20123;-78
2023/02/24 09:40:51;;;;;;;9.20;3.20;;;;;;;3.86;74.37;98844.63;4931583;29;20131;-78
2023/02/24 09:43:46;;;;;;;13.23;3.28;;;;;;;3.80;74.90;98842.28;4942683;28;20045;-78
2023/02/24 09:46:29;;;;;;;11.82;3.40;;;;;;;3.77;74.66;98832.84;4935456;29;20505;-78
2023/02/24 09:49:56;;;;;;;10.23;2.70;;;;;;;3.73;75.47;98831.31;4970279;28;20177;-78
2023/02/24 09:52:43;;;;;;;8.85;2.78;;;;;;;3.72;75.42;98827.00;5006063;28;20046;-78
2023/02/24 09:56:12;;;;;;;;;;;;;;;;;;;;;
2023/02/24 09:59:09;;;;;;;10.02;3.42;;;;;;;3.69;75.67;98825.41;5012398;28;20057;-77
2023/02/24 10:02:08;;;;;;;6.20;2.90;;;;;;;3.69;75.61;98830.59;5011993;28;20069;-77
2023/02/24 10:05:19;;;;;;;8.10;2.92;;;;;;;3.69;75.64;98827.13;4992878;28;20062;-77
2023/02/24 10:08:24;;;;;;;9.88;3.00;;;;;;;3.69;75.94;98804.56;5012228;28;20085;-77
2023/02/24 10:11:07;;;;;;;6.85;2.65;;;;;;;3.72;75.89;98807.03;5011195;28;20100;-77
2023/02/24 10:14:18;;;;;;;10.65;3.28;;;;;;;3.70;76.20;98795.84;5011329;28;20054;-77
2023/02/24 10:17:46;;;;;;;11.77;3.00;;;;;;;3.67;76.38;98785.59;4931181;28;20063;-77
2023/02/24 10:20:38;;;;;;;9.35;3.10;;;;;;;3.72;76.04;98777.56;4966902;28;20090;-76
2023/02/24 10:23:46;;;;;;;8.77;3.88;;;;;;;3.68;76.59;98773.41;5014613;28;20050;-76
2023/02/24 10:26:30;;;;;;;11.07;3.40;;;;;;;3.68;76.59;98766.44;4987517;28;20116;-76
2023/02/24 10:29:21;;;;;;;7.75;3.00;;;;;;;3.69;76.63;98764.66;5010859;28;20092;-76
2023/02/24 10:31:56;;;;;;;4.78;2.60;;;;;;;3.72;77.08;98744.56;5010626;28;20115;-76
2023/02/24 10:34:30;;;;;;;4.90;2.80;;;;;;;3.73;77.14;98754.06;5010734;28;20049;-76
2023/02/24 10:37:18;;;;;;;8.02;3.22;;;;;;;3.71;77.35;98755.91;5010142;28;20585;-76
2023/02/24 10:40:08;;;;;;;5.75;3.20;;;;;;;3.75;77.12;98754.00;5009646;28;20132;-76
2023/02/24 10:42:44;;;;;;;6.05;3.60;;;;;;;3.77;77.24;98749.56;5010509;28;20073;-76
2023/02/24 10:45:30;;;;;;;7.00;3.20;;;;;;;3.80;77.11;98744.22;5012339;28;20058;-76
2023/02/24 10:48:06;;;;;;;8.35;3.30;;;;;;;3.81;77.83;98740.69;5014354;28;20054;-76
2023/02/24 10:50:43;;;;;;;10.70;3.75;;;;;;;3.84;78.17;98737.09;5014689;28;20599;-76
2023/02/24 10:53:33;;;;;;;7.10;4.25;;;;;;;3.88;78.18;98736.91;5014588;28;20049;-76
2023/02/24 10:56:25;;;;;;;7.82;3.55;;;;;;;3.90;78.08;98736.84;5014156;28;20052;-76
2023/02/24 10:59:19;;;;;;;10.32;3.90;;;;;;;3.93;78.20;98744.53;5012882;28;20049;-76
2023/02/24 11:02:22;;;;;;;6.38;3.47;;;;;;;3.95;78.17;98724.44;5013280;28;20173;-76
2023/02/24 11:05:03;;;;;;;6.82;3.00;;;;;;;3.99;78.40;98715.59;5012879;28;20054;-76
2023/02/24 11:07:52;;;;;;;7.72;3.75;;;;;;;4.04;78.42;98718.81;5013935;28;20108;-76
2023/02/24 11:10:31;;;;;;;8.23;3.88;;;;;;;4.08;78.41;98710.88;5014072;28;20046;-76
2023/02/24 11:18:39;;;;;;;8.90;4.15;;;;;;;4.12;78.52;98686.38;5004326;23;20057;-76
2023/02/24 11:21:09;;;;;;;7.43;3.78;;;;;;;4.14;78.65;98689.72;5012534;28;20075;-76
2023/02/24 11:23:41;;;;;;;5.85;3.53;;;;;;;4.16;78.83;98683.53;5012504;28;20077;-75
2023/02/24 11:26:19;;;;;;;9.13;4.75;;;;;;;4.21;79.38;98679.84;5013407;28;20125;-76
2023/02/24 11:28:49;;;;;;;8.40;4.18;;;;;;;4.25;79.33;98658.81;5013260;28;20060;-76
2023/02/24 11:31:21;;;;;;;8.27;4.88;;;;;;;4.25;79.08;98671.81;5014195;28;20128;-77
2023/02/24 11:33:58;;;;;;;;;;;;;;;4.31;78.87;98660.28;5014243;28;20061;-75
2023/02/24 11:36:32;;;;;;;5.90;4.25;;;;;;;4.36;78.71;98660.88;5013512;28;19973;-77
2023/02/24 11:39:14;;;;;;;8.10;4.35;;;;;;;4.36;78.94;98653.06;5013635;28;20049;-77
2023/02/24 11:41:52;;;;;;;12.23;4.63;;;;;;;4.36;78.42;98652.22;5013868;28;20116;-76
2023/02/24 11:44:51;;;;;;;8.75;4.72;;;;;;;4.35;78.69;98646.19;5013733;28;20052;-76
2023/02/24 11:47:25;;;;;;;8.82;4.60;;;;;;;4.37;78.79;98646.09;5011284;28;20066;-76
2023/02/24 11:50:04;;;;;;;10.25;4.50;;;;;;;4.34;78.70;98643.66;5013606;28;20050;-76
2023/02/24 11:52:37;;;;;;;8.88;4.47;;;;;;;4.36;78.80;98631.38;5013643;28;20077;-76
2023/02/24 11:55:14;;;;;;;9.30;4.65;;;;;;;4.36;78.81;98634.81;5013159;28;20057;-76
2023/02/24 11:57:49;;;;;;;10.57;5.30;;;;;;;4.36;78.92;98632.22;5010928;28;20475;-76
2023/02/24 12:00:22;;;;;;;7.40;4.40;;;;;;;4.38;79.30;98619.13;5013362;28;20042;-76
2023/02/24 12:03:11;;;;;;;6.07;4.80;;;;;;;4.39;79.52;98623.41;5012352;28;20141;-76
2023/02/24 12:05:51;;;;;;;7.55;4.85;;;;;;;4.40;79.43;98625.94;5012921;28;20141;-76
2023/02/24 12:08:24;;;;;;;8.23;4.65;;;;;;;4.48;79.80;98612.53;5012896;28;20050;-76
2023/02/24 12:11:13;;;;;;;9.20;3.90;;;;;;;4.48;79.78;98615.13;5013120;28;20064;-76
2023/02/24 12:14:28;;;;;;;9.45;4.38;;;;;;;4.54;79.75;98612.22;5013041;28;20071;-76
2023/02/24 12:17:20;;;;;;;7.28;4.57;;;;;;;4.59;79.65;98611.97;5006285;28;20140;-76
2023/02/24 12:20:04;;;;;;;5.93;4.43;;;;;;;4.68;80.05;98610.69;5006039;28;20045;-76
2023/02/24 12:22:44;;;;;;;8.80;4.82;;;;;;;4.69;80.02;98600.19;5011390;28;20471;-75
2023/02/24 12:25:13;;;;;;;9.65;5.03;;;;;;;4.76;80.43;98592.03;5011786;28;20152;-76
2023/02/24 12:28:05;;;;;;;11.50;5.53;;;;;;;4.79;80.37;98591.88;5009885;28;20486;-76
2023/02/24 12:31:09;;;;;;;11.20;5.85;;;;;;;4.83;80.25;98580.38;5012349;28;20045;-76
2023/02/24 12:33:55;;;;;;;8.85;5.25;;;;;;;4.89;80.72;98571.34;5012179;28;20061;-77
2023/02/24 12:36:42;;;;;;;9.52;5.10;;;;;;;4.95;80.71;98563.22;5012187;28;20053;-77
2023/02/24 12:39:30;;;;;;;12.55;4.97;;;;;;;5.00;80.76;98566.41;5012552;28;20609;-76
2023/02/24 12:42:24;;;;;;;10.95;5.40;;;;;;;5.05;80.54;98555.75;5011418;28;20518;-76
2023/02/24 12:45:10;;;;;;;9.88;5.00;;;;;;;5.13;80.72;98547.50;5011820;28;20566;-76
2023/02/24 12:47:45;;;;;;;15.52;5.13;;;;;;;5.15;80.61;98537.81;5011913;28;20442;-76
2023/02/24 12:50:32;;;;;;;12.43;6.05;;;;;;;5.16;80.59;98563.00;5011283;28;20104;-77
2023/02/24 12:53:02;;;;;;;11.02;5.18;;;;;;;5.24;81.15;98559.97;5004842;28;20053;-76
2023/02/24 12:56:02;;;;;;;10.48;5.88;;;;;;;5.25;80.90;98539.03;5011788;28;20495;-76
2023/02/24 12:58:33;;;;;;;12.93;5.60;;;;;;;5.34;81.16;98535.03;5005967;28;20052;-76
2023/02/24 13:01:23;;;;;;;9.32;5.00;;;;;;;5.38;81.08;98535.75;5012422;28;20054;-76
2023/02/24 13:04:12;;;;;;;10.80;5.10;;;;;;;5.43;80.79;98523.28;5011159;28;20510;-76
2023/02/24 13:06:54;;;;;;;13.15;5.50;;;;;;;5.48;81.03;98523.84;5008239;28;20586;-76
2023/02/24 13:09:31;;;;;;;14.05;5.95;;;;;;;5.56;81.39;98524.25;5012142;28;20048;-76
2023/02/24 13:12:07;;;;;;;12.65;5.85;;;;;;;5.60;81.14;98509.25;5012158;28;20049;-76
2023/02/24 13:14:36;;;;;;;10.23;5.82;;;;;;;5.67;81.32;98512.34;5012130;28;20081;-76
2023/02/24 13:17:25;;;;;;;12.50;5.78;;;;;;;5.69;81.20;98507.91;5010765;28;20482;-75
2023/02/24 13:19:55;;;;;;;14.40;6.28;;;;;;;5.77;81.28;98490.03;5012069;28;20050;-76
2023/02/24 13:22:25;;;;;;;11.80;5.85;;;;;;;5.82;81.51;98492.38;5009534;28;20049;-76
2023/02/24 13:25:06;;;;;;;17.67;6.05;;;;;;;5.85;80.89;98487.81;5009009;28;20063;-76
2023/02/24 13:27:43;;;;;;;10.38;5.97;;;;;;;5.93;81.83;98487.38;5009748;28;20120;-76
2023/02/24 13:30:18;;;;;;;8.75;5.22;;;;;;;5.97;81.42;98485.41;5011864;28;20130;-76
2023/02/24 13:32:57;;;;;;;12.50;5.55;;;;;;;6.04;81.88;98476.31;5011679;28;20088;-76
2023/02/24 13:35:23;;;;;;;17.70;6.43;;;;;;;6.10;81.60;98469.91;5011407;28;20050;-76
2023/02/24 13:37:51;;;;;;;10.77;5.75;;;;;;;6.16;81.45;98468.69;5011151;28;20081;-76
2023/02/24 13:40:18;;;;;;;12.23;5.05;;;;;;;6.21;81.33;98461.41;5010350;28;20049;-76
2023/02/24 13:42:59;;;;;;;10.80;5.30;;;;;;;6.22;81.19;98457.88;5011679;28;20045;-76
2023/02/24 13:45:33;;;;;;;12.00;6.30;;;;;;;6.28;81.15;98462.72;5011209;28;20057;-76
2023/02/24 13:48:18;;;;;;;18.15;6.18;;;;;;;6.30;80.96;98452.16;5010948;28;20557;-75